sensor_id;sensor_type;location;lat;lon;timestamp;P1;durP1;ratioP1;P2;durP2;ratioP2
2123;SDS011;1068;52.460;13.528;2022-09-24T00:01:44;8.07;;;6.67;;
2123;SDS011;1068;52.460;13.528;2022-09-24T00:04:11;7.13;;;6.30;;
2123;SDS011;1068;52.460;13.528;2022-09-24T00:06:39;6.80;;;6.10;;
2123;SDS011;1068;52.460;13.528;2022-09-24T00:09:08;7.43;;;6.73;;
2123;SDS011;1068;52.460;13.528;2022-09-24T00:11:35;7.27;;;6.30;;
2123;SDS011;1068;52.460;13.528;2022-09-24T00:14:02;7.43;;;6.40;;
2123;SDS011;1068;52.460;13.528;2022-09-24T00:16:31;6.43;;;5.90;;
2123;SDS011;1068;52.460;13.528;2022-09-24T00:18:59;8.17;;;6.30;;
2123;SDS011;1068;52.460;13.528;2022-09-24T00:21:27;7.33;;;6.63;;
2123;SDS011;1068;52.460;13.528;2022-09-24T00:23:55;7.50;;;6.70;;
2123;SDS011;1068;52.460;13.528;2022-09-24T00:26:24;8.00;;;6.97;;
2123;SDS011;1068;52.460;13.528;2022-09-24T00:29:09;8.20;;;6.97;;
2123;SDS011;1068;52.460;13.528;2022-09-24T00:31:37;8.80;;;7.17;;
2123;SDS011;1068;52.460;13.528;2022-09-24T00:34:04;9.23;;;8.30;;
2123;SDS011;1068;52.460;13.528;2022-09-24T00:36:31;8.53;;;7.63;;
2123;SDS011;1068;52.460;13.528;2022-09-24T00:38:58;10.20;;;7.70;;
2123;SDS011;1068;52.460;13.528;2022-09-24T00:41:27;8.50;;;7.80;;
2123;SDS011;1068;52.460;13.528;2022-09-24T00:43:54;8.37;;;7.67;;
2123;SDS011;1068;52.460;13.528;2022-09-24T00:46:22;8.30;;;7.50;;
2123;SDS011;1068;52.460;13.528;2022-09-24T00:48:51;9.43;;;8.47;;
2123;SDS011;1068;52.460;13.528;2022-09-24T00:51:19;11.30;;;9.63;;
2123;SDS011;1068;52.460;13.528;2022-09-24T00:53:47;9.80;;;8.80;;
2123;SDS011;1068;52.460;13.528;2022-09-24T00:56:15;9.97;;;9.07;;
2123;SDS011;1068;52.460;13.528;2022-09-24T00:58:45;10.73;;;8.53;;
2123;SDS011;1068;52.460;13.528;2022-09-24T01:01:12;8.03;;;7.23;;
2123;SDS011;1068;52.460;13.528;2022-09-24T01:03:39;6.70;;;6.17;;
2123;SDS011;1068;52.460;13.528;2022-09-24T01:06:07;8.20;;;6.90;;
2123;SDS011;1068;52.460;13.528;2022-09-24T01:08:34;6.87;;;6.13;;
2123;SDS011;1068;52.460;13.528;2022-09-24T01:11:10;6.47;;;5.97;;
2123;SDS011;1068;52.460;13.528;2022-09-24T01:13:47;7.27;;;6.53;;
2123;SDS011;1068;52.460;13.528;2022-09-24T01:16:21;6.47;;;5.87;;
2123;SDS011;1068;52.460;13.528;2022-09-24T01:18:56;6.77;;;6.10;;
2123;SDS011;1068;52.460;13.528;2022-09-24T01:21:30;8.50;;;6.13;;
2123;SDS011;1068;52.460;13.528;2022-09-24T01:24:00;6.63;;;6.03;;
2123;SDS011;1068;52.460;13.528;2022-09-24T01:26:44;6.77;;;6.10;;
2123;SDS011;1068;52.460;13.528;2022-09-24T01:29:31;8.40;;;6.80;;
2123;SDS011;1068;52.460;13.528;2022-09-24T01:32:06;7.00;;;6.40;;
2123;SDS011;1068;52.460;13.528;2022-09-24T01:34:36;8.90;;;8.10;;
2123;SDS011;1068;52.460;13.528;2022-09-24T01:37:05;7.30;;;6.70;;
2123;SDS011;1068;52.460;13.528;2022-09-24T01:39:33;6.30;;;5.70;;
2123;SDS011;1068;52.460;13.528;2022-09-24T01:42:01;7.03;;;6.13;;
2123;SDS011;1068;52.460;13.528;2022-09-24T01:44:28;5.93;;;5.43;;
2123;SDS011;1068;52.460;13.528;2022-09-24T01:46:57;7.23;;;6.27;;
2123;SDS011;1068;52.460;13.528;2022-09-24T01:49:24;7.30;;;6.27;;
2123;SDS011;1068;52.460;13.528;2022-09-24T01:51:53;6.10;;;5.70;;
2123;SDS011;1068;52.460;13.528;2022-09-24T01:54:23;6.80;;;6.30;;
2123;SDS011;1068;52.460;13.528;2022-09-24T01:56:52;6.63;;;6.03;;
2123;SDS011;1068;52.460;13.528;2022-09-24T01:59:22;6.70;;;6.10;;
2123;SDS011;1068;52.460;13.528;2022-09-24T02:01:52;6.37;;;5.87;;
2123;SDS011;1068;52.460;13.528;2022-09-24T02:04:23;8.83;;;6.57;;
2123;SDS011;1068;52.460;13.528;2022-09-24T02:06:52;6.60;;;6.00;;
2123;SDS011;1068;52.460;13.528;2022-09-24T02:09:31;6.80;;;6.20;;
2123;SDS011;1068;52.460;13.528;2022-09-24T02:11:59;6.70;;;6.20;;
2123;SDS011;1068;52.460;13.528;2022-09-24T02:14:28;6.13;;;5.67;;
2123;SDS011;1068;52.460;13.528;2022-09-24T02:16:57;6.03;;;5.53;;
2123;SDS011;1068;52.460;13.528;2022-09-24T02:19:26;6.57;;;6.07;;
2123;SDS011;1068;52.460;13.528;2022-09-24T02:21:54;6.73;;;6.23;;
2123;SDS011;1068;52.460;13.528;2022-09-24T02:24:23;6.80;;;6.00;;
2123;SDS011;1068;52.460;13.528;2022-09-24T02:26:51;6.30;;;5.80;;
2123;SDS011;1068;52.460;13.528;2022-09-24T02:29:19;6.37;;;5.97;;
2123;SDS011;1068;52.460;13.528;2022-09-24T02:31:47;6.20;;;5.73;;
2123;SDS011;1068;52.460;13.528;2022-09-24T02:34:16;7.10;;;6.03;;
2123;SDS011;1068;52.460;13.528;2022-09-24T02:36:47;6.40;;;5.80;;
2123;SDS011;1068;52.460;13.528;2022-09-24T02:39:15;6.53;;;5.93;;
2123;SDS011;1068;52.460;13.528;2022-09-24T02:41:42;6.87;;;6.37;;
2123;SDS011;1068;52.460;13.528;2022-09-24T02:44:11;6.57;;;6.07;;
2123;SDS011;1068;52.460;13.528;2022-09-24T02:46:39;6.63;;;6.13;;
2123;SDS011;1068;52.460;13.528;2022-09-24T02:49:06;6.40;;;5.50;;
2123;SDS011;1068;52.460;13.528;2022-09-24T02:51:33;5.63;;;5.33;;
2123;SDS011;1068;52.460;13.528;2022-09-24T02:54:01;6.63;;;6.23;;
2123;SDS011;1068;52.460;13.528;2022-09-24T02:56:28;6.00;;;5.60;;
2123;SDS011;1068;52.460;13.528;2022-09-24T02:58:55;5.93;;;5.43;;
2123;SDS011;1068;52.460;13.528;2022-09-24T03:01:23;5.70;;;5.20;;
2123;SDS011;1068;52.460;13.528;2022-09-24T03:03:50;6.70;;;6.10;;
2123;SDS011;1068;52.460;13.528;2022-09-24T03:06:17;5.90;;;5.40;;
2123;SDS011;1068;52.460;13.528;2022-09-24T03:08:44;5.23;;;4.90;;
2123;SDS011;1068;52.460;13.528;2022-09-24T03:11:12;5.77;;;5.40;;
2123;SDS011;1068;52.460;13.528;2022-09-24T03:13:40;8.23;;;6.10;;
2123;SDS011;1068;52.460;13.528;2022-09-24T03:16:07;13.23;;;6.40;;
2123;SDS011;1068;52.460;13.528;2022-09-24T03:18:34;6.07;;;5.57;;
2123;SDS011;1068;52.460;13.528;2022-09-24T03:21:03;6.10;;;5.20;;
2123;SDS011;1068;52.460;13.528;2022-09-24T03:23:30;6.23;;;5.73;;
2123;SDS011;1068;52.460;13.528;2022-09-24T03:25:57;10.10;;;6.23;;
2123;SDS011;1068;52.460;13.528;2022-09-24T03:28:25;5.97;;;5.47;;
2123;SDS011;1068;52.460;13.528;2022-09-24T03:30:52;5.50;;;5.10;;
2123;SDS011;1068;52.460;13.528;2022-09-24T03:33:25;6.20;;;5.80;;
2123;SDS011;1068;52.460;13.528;2022-09-24T03:35:54;5.63;;;5.23;;
2123;SDS011;1068;52.460;13.528;2022-09-24T03:38:21;6.20;;;5.70;;
2123;SDS011;1068;52.460;13.528;2022-09-24T03:40:48;8.07;;;5.90;;
2123;SDS011;1068;52.460;13.528;2022-09-24T03:43:15;7.40;;;5.40;;
2123;SDS011;1068;52.460;13.528;2022-09-24T03:45:43;5.93;;;5.53;;
2123;SDS011;1068;52.460;13.528;2022-09-24T03:48:10;8.00;;;6.33;;
2123;SDS011;1068;52.460;13.528;2022-09-24T03:50:37;6.10;;;5.60;;
2123;SDS011;1068;52.460;13.528;2022-09-24T03:53:04;5.93;;;5.53;;
2123;SDS011;1068;52.460;13.528;2022-09-24T03:55:31;6.77;;;6.07;;
2123;SDS011;1068;52.460;13.528;2022-09-24T03:57:58;7.00;;;6.30;;
2123;SDS011;1068;52.460;13.528;2022-09-24T04:00:25;6.60;;;6.00;;
2123;SDS011;1068;52.460;13.528;2022-09-24T04:02:54;5.70;;;5.30;;
2123;SDS011;1068;52.460;13.528;2022-09-24T04:05:21;6.53;;;5.93;;
2123;SDS011;1068;52.460;13.528;2022-09-24T04:07:48;6.80;;;6.23;;
2123;SDS011;1068;52.460;13.528;2022-09-24T04:10:15;6.03;;;5.63;;
2123;SDS011;1068;52.460;13.528;2022-09-24T04:12:42;6.47;;;5.87;;
2123;SDS011;1068;52.460;13.528;2022-09-24T04:15:09;7.37;;;6.67;;
2123;SDS011;1068;52.460;13.528;2022-09-24T04:17:36;7.17;;;6.47;;
2123;SDS011;1068;52.460;13.528;2022-09-24T04:20:05;6.13;;;5.50;;
2123;SDS011;1068;52.460;13.528;2022-09-24T04:22:33;7.27;;;6.67;;
2123;SDS011;1068;52.460;13.528;2022-09-24T04:25:00;6.03;;;5.47;;
2123;SDS011;1068;52.460;13.528;2022-09-24T04:27:27;7.33;;;6.63;;
2123;SDS011;1068;52.460;13.528;2022-09-24T04:29:54;7.93;;;6.53;;
2123;SDS011;1068;52.460;13.528;2022-09-24T04:32:21;7.00;;;6.30;;
2123;SDS011;1068;52.460;13.528;2022-09-24T04:34:48;7.23;;;6.53;;
2123;SDS011;1068;52.460;13.528;2022-09-24T04:37:17;7.20;;;6.60;;
2123;SDS011;1068;52.460;13.528;2022-09-24T04:39:43;7.33;;;6.70;;
2123;SDS011;1068;52.460;13.528;2022-09-24T04:42:14;7.33;;;6.83;;
2123;SDS011;1068;52.460;13.528;2022-09-24T04:44:41;6.03;;;5.50;;
2123;SDS011;1068;52.460;13.528;2022-09-24T04:47:11;5.53;;;5.13;;
2123;SDS011;1068;52.460;13.528;2022-09-24T04:49:38;6.60;;;6.10;;
2123;SDS011;1068;52.460;13.528;2022-09-24T04:52:05;6.47;;;5.97;;
2123;SDS011;1068;52.460;13.528;2022-09-24T04:54:34;7.33;;;6.63;;
2123;SDS011;1068;52.460;13.528;2022-09-24T04:57:01;6.80;;;5.60;;
2123;SDS011;1068;52.460;13.528;2022-09-24T04:59:28;7.23;;;6.50;;
2123;SDS011;1068;52.460;13.528;2022-09-24T05:01:54;6.10;;;5.70;;
2123;SDS011;1068;52.460;13.528;2022-09-24T05:04:22;6.63;;;6.13;;
2123;SDS011;1068;52.460;13.528;2022-09-24T05:06:49;6.43;;;5.87;;
2123;SDS011;1068;52.460;13.528;2022-09-24T05:09:16;14.90;;;6.23;;
2123;SDS011;1068;52.460;13.528;2022-09-24T05:11:44;9.40;;;6.80;;
2123;SDS011;1068;52.460;13.528;2022-09-24T05:14:11;7.23;;;6.53;;
2123;SDS011;1068;52.460;13.528;2022-09-24T05:16:38;6.83;;;6.37;;
2123;SDS011;1068;52.460;13.528;2022-09-24T05:19:05;6.77;;;6.13;;
2123;SDS011;1068;52.460;13.528;2022-09-24T05:21:32;6.33;;;5.53;;
2123;SDS011;1068;52.460;13.528;2022-09-24T05:23:59;6.37;;;5.87;;
2123;SDS011;1068;52.460;13.528;2022-09-24T05:26:26;7.40;;;6.70;;
2123;SDS011;1068;52.460;13.528;2022-09-24T05:29:12;7.50;;;6.80;;
2123;SDS011;1068;52.460;13.528;2022-09-24T05:31:39;7.03;;;6.33;;
2123;SDS011;1068;52.460;13.528;2022-09-24T05:34:06;8.93;;;6.93;;
2123;SDS011;1068;52.460;13.528;2022-09-24T05:36:33;7.33;;;6.60;;
2123;SDS011;1068;52.460;13.528;2022-09-24T05:39:00;12.03;;;8.43;;
2123;SDS011;1068;52.460;13.528;2022-09-24T05:41:27;7.53;;;6.60;;
2123;SDS011;1068;52.460;13.528;2022-09-24T05:43:53;6.93;;;6.33;;
2123;SDS011;1068;52.460;13.528;2022-09-24T05:46:23;6.63;;;5.90;;
2123;SDS011;1068;52.460;13.528;2022-09-24T05:48:50;11.70;;;7.80;;
2123;SDS011;1068;52.460;13.528;2022-09-24T05:51:17;10.67;;;8.40;;
2123;SDS011;1068;52.460;13.528;2022-09-24T05:53:44;9.03;;;8.13;;
2123;SDS011;1068;52.460;13.528;2022-09-24T05:56:11;8.90;;;8.00;;
2123;SDS011;1068;52.460;13.528;2022-09-24T05:58:38;9.90;;;9.00;;
2123;SDS011;1068;52.460;13.528;2022-09-24T06:01:05;7.93;;;7.23;;
2123;SDS011;1068;52.460;13.528;2022-09-24T06:03:33;10.37;;;8.30;;
2123;SDS011;1068;52.460;13.528;2022-09-24T06:06:00;8.10;;;7.30;;
2123;SDS011;1068;52.460;13.528;2022-09-24T06:08:28;6.90;;;6.40;;
2123;SDS011;1068;52.460;13.528;2022-09-24T06:10:57;8.20;;;7.33;;
2123;SDS011;1068;52.460;13.528;2022-09-24T06:13:24;7.60;;;6.90;;
2123;SDS011;1068;52.460;13.528;2022-09-24T06:15:51;7.50;;;6.80;;
2123;SDS011;1068;52.460;13.528;2022-09-24T06:18:18;7.20;;;6.70;;
2123;SDS011;1068;52.460;13.528;2022-09-24T06:20:46;6.97;;;6.47;;
2123;SDS011;1068;52.460;13.528;2022-09-24T06:23:13;7.23;;;6.60;;
2123;SDS011;1068;52.460;13.528;2022-09-24T06:25:40;6.73;;;6.27;;
2123;SDS011;1068;52.460;13.528;2022-09-24T06:28:07;8.83;;;6.67;;
2123;SDS011;1068;52.460;13.528;2022-09-24T06:30:34;6.83;;;6.30;;
2123;SDS011;1068;52.460;13.528;2022-09-24T06:33:03;9.00;;;6.53;;
2123;SDS011;1068;52.460;13.528;2022-09-24T06:35:32;7.50;;;6.50;;
2123;SDS011;1068;52.460;13.528;2022-09-24T06:38:01;8.63;;;6.40;;
2123;SDS011;1068;52.460;13.528;2022-09-24T06:40:27;8.07;;;7.47;;
2123;SDS011;1068;52.460;13.528;2022-09-24T06:42:54;6.93;;;6.43;;
2123;SDS011;1068;52.460;13.528;2022-09-24T06:45:22;7.37;;;6.77;;
2123;SDS011;1068;52.460;13.528;2022-09-24T06:47:51;8.10;;;6.07;;
2123;SDS011;1068;52.460;13.528;2022-09-24T06:50:18;7.70;;;6.90;;
2123;SDS011;1068;52.460;13.528;2022-09-24T06:52:45;8.13;;;7.40;;
2123;SDS011;1068;52.460;13.528;2022-09-24T06:55:13;8.07;;;7.27;;
2123;SDS011;1068;52.460;13.528;2022-09-24T06:57:40;8.53;;;7.70;;
2123;SDS011;1068;52.460;13.528;2022-09-24T07:00:08;7.40;;;6.80;;
2123;SDS011;1068;52.460;13.528;2022-09-24T07:02:36;7.80;;;7.13;;
2123;SDS011;1068;52.460;13.528;2022-09-24T07:05:03;7.80;;;7.00;;
2123;SDS011;1068;52.460;13.528;2022-09-24T07:07:30;8.20;;;7.00;;
2123;SDS011;1068;52.460;13.528;2022-09-24T07:09:58;7.47;;;6.93;;
2123;SDS011;1068;52.460;13.528;2022-09-24T07:12:27;13.10;;;8.00;;
2123;SDS011;1068;52.460;13.528;2022-09-24T07:14:54;7.63;;;6.47;;
2123;SDS011;1068;52.460;13.528;2022-09-24T07:17:21;6.93;;;6.43;;
2123;SDS011;1068;52.460;13.528;2022-09-24T07:19:48;7.27;;;6.50;;
2123;SDS011;1068;52.460;13.528;2022-09-24T07:22:15;5.90;;;5.40;;
2123;SDS011;1068;52.460;13.528;2022-09-24T07:24:42;7.40;;;6.90;;
2123;SDS011;1068;52.460;13.528;2022-09-24T07:27:09;7.03;;;6.40;;
2123;SDS011;1068;52.460;13.528;2022-09-24T07:29:37;9.07;;;7.23;;
2123;SDS011;1068;52.460;13.528;2022-09-24T07:32:04;11.70;;;7.40;;
2123;SDS011;1068;52.460;13.528;2022-09-24T07:34:31;7.90;;;7.10;;
2123;SDS011;1068;52.460;13.528;2022-09-24T07:36:58;14.90;;;7.00;;
2123;SDS011;1068;52.460;13.528;2022-09-24T07:39:25;8.40;;;7.13;;
2123;SDS011;1068;52.460;13.528;2022-09-24T07:41:52;8.73;;;7.50;;
2123;SDS011;1068;52.460;13.528;2022-09-24T07:44:20;7.63;;;6.93;;
2123;SDS011;1068;52.460;13.528;2022-09-24T07:46:49;8.00;;;7.30;;
2123;SDS011;1068;52.460;13.528;2022-09-24T07:49:16;7.93;;;6.50;;
2123;SDS011;1068;52.460;13.528;2022-09-24T07:51:43;6.80;;;6.03;;
2123;SDS011;1068;52.460;13.528;2022-09-24T07:54:10;9.03;;;7.03;;
2123;SDS011;1068;52.460;13.528;2022-09-24T07:56:37;7.07;;;6.37;;
2123;SDS011;1068;52.460;13.528;2022-09-24T07:59:04;7.37;;;6.63;;
2123;SDS011;1068;52.460;13.528;2022-09-24T08:01:31;9.63;;;6.90;;
2123;SDS011;1068;52.460;13.528;2022-09-24T08:04:00;9.60;;;7.77;;
2123;SDS011;1068;52.460;13.528;2022-09-24T08:06:28;7.40;;;6.70;;
2123;SDS011;1068;52.460;13.528;2022-09-24T08:08:57;7.23;;;6.47;;
2123;SDS011;1068;52.460;13.528;2022-09-24T08:11:24;7.50;;;6.90;;
2123;SDS011;1068;52.460;13.528;2022-09-24T08:13:51;6.80;;;6.20;;
2123;SDS011;1068;52.460;13.528;2022-09-24T08:16:18;9.23;;;6.40;;
2123;SDS011;1068;52.460;13.528;2022-09-24T08:18:46;6.87;;;6.37;;
2123;SDS011;1068;52.460;13.528;2022-09-24T08:21:14;6.30;;;5.70;;
2123;SDS011;1068;52.460;13.528;2022-09-24T08:23:42;7.63;;;6.83;;
2123;SDS011;1068;52.460;13.528;2022-09-24T08:26:09;7.83;;;7.13;;
2123;SDS011;1068;52.460;13.528;2022-09-24T08:28:36;6.30;;;5.70;;
2123;SDS011;1068;52.460;13.528;2022-09-24T08:31:05;9.13;;;6.13;;
2123;SDS011;1068;52.460;13.528;2022-09-24T08:33:33;6.40;;;6.00;;
2123;SDS011;1068;52.460;13.528;2022-09-24T08:36:00;7.70;;;6.00;;
2123;SDS011;1068;52.460;13.528;2022-09-24T08:38:28;6.97;;;6.40;;
2123;SDS011;1068;52.460;13.528;2022-09-24T08:40:57;6.20;;;5.80;;
2123;SDS011;1068;52.460;13.528;2022-09-24T08:43:31;6.50;;;5.83;;
2123;SDS011;1068;52.460;13.528;2022-09-24T08:46:03;6.40;;;5.60;;
2123;SDS011;1068;52.460;13.528;2022-09-24T08:48:51;6.70;;;5.90;;
2123;SDS011;1068;52.460;13.528;2022-09-24T08:51:19;6.30;;;5.70;;
2123;SDS011;1068;52.460;13.528;2022-09-24T08:53:50;5.80;;;5.40;;
2123;SDS011;1068;52.460;13.528;2022-09-24T08:56:19;5.97;;;5.57;;
2123;SDS011;1068;52.460;13.528;2022-09-24T08:58:47;5.53;;;5.10;;
2123;SDS011;1068;52.460;13.528;2022-09-24T09:01:19;5.67;;;5.23;;
2123;SDS011;1068;52.460;13.528;2022-09-24T09:03:48;5.63;;;5.23;;
2123;SDS011;1068;52.460;13.528;2022-09-24T09:06:23;7.53;;;5.40;;
2123;SDS011;1068;52.460;13.528;2022-09-24T09:08:54;6.17;;;5.57;;
2123;SDS011;1068;52.460;13.528;2022-09-24T09:11:23;6.10;;;5.50;;
2123;SDS011;1068;52.460;13.528;2022-09-24T09:13:53;11.00;;;5.27;;
2123;SDS011;1068;52.460;13.528;2022-09-24T09:16:23;5.63;;;5.20;;
2123;SDS011;1068;52.460;13.528;2022-09-24T09:18:52;5.07;;;4.60;;
2123;SDS011;1068;52.460;13.528;2022-09-24T09:21:23;5.33;;;4.83;;
2123;SDS011;1068;52.460;13.528;2022-09-24T09:23:53;4.80;;;4.50;;
2123;SDS011;1068;52.460;13.528;2022-09-24T09:26:23;7.00;;;4.90;;
2123;SDS011;1068;52.460;13.528;2022-09-24T09:28:51;5.30;;;4.77;;
2123;SDS011;1068;52.460;13.528;2022-09-24T09:31:25;6.20;;;5.17;;
2123;SDS011;1068;52.460;13.528;2022-09-24T09:34:00;5.87;;;5.30;;
2123;SDS011;1068;52.460;13.528;2022-09-24T09:36:33;5.50;;;4.63;;
2123;SDS011;1068;52.460;13.528;2022-09-24T09:39:07;6.63;;;5.30;;
2123;SDS011;1068;52.460;13.528;2022-09-24T09:41:39;4.83;;;4.43;;
2123;SDS011;1068;52.460;13.528;2022-09-24T09:44:09;4.97;;;4.67;;
2123;SDS011;1068;52.460;13.528;2022-09-24T09:46:38;5.37;;;4.80;;
2123;SDS011;1068;52.460;13.528;2022-09-24T09:49:08;5.20;;;4.90;;
2123;SDS011;1068;52.460;13.528;2022-09-24T09:51:37;6.10;;;5.50;;
2123;SDS011;1068;52.460;13.528;2022-09-24T09:54:05;5.73;;;5.20;;
2123;SDS011;1068;52.460;13.528;2022-09-24T09:56:33;5.57;;;5.13;;
2123;SDS011;1068;52.460;13.528;2022-09-24T09:59:02;5.87;;;5.27;;
2123;SDS011;1068;52.460;13.528;2022-09-24T10:01:31;5.43;;;5.03;;
2123;SDS011;1068;52.460;13.528;2022-09-24T10:03:58;5.77;;;5.27;;
2123;SDS011;1068;52.460;13.528;2022-09-24T10:06:28;15.53;;;6.83;;
2123;SDS011;1068;52.460;13.528;2022-09-24T10:09:06;6.47;;;5.87;;
2123;SDS011;1068;52.460;13.528;2022-09-24T10:11:33;6.30;;;5.37;;
2123;SDS011;1068;52.460;13.528;2022-09-24T10:14:00;6.37;;;5.87;;
2123;SDS011;1068;52.460;13.528;2022-09-24T10:16:28;5.80;;;5.30;;
2123;SDS011;1068;52.460;13.528;2022-09-24T10:18:55;5.60;;;5.10;;
2123;SDS011;1068;52.460;13.528;2022-09-24T10:21:24;10.20;;;6.30;;
2123;SDS011;1068;52.460;13.528;2022-09-24T10:23:56;7.23;;;5.50;;
2123;SDS011;1068;52.460;13.528;2022-09-24T10:26:33;6.17;;;5.67;;
2123;SDS011;1068;52.460;13.528;2022-09-24T10:29:00;8.13;;;6.10;;
2123;SDS011;1068;52.460;13.528;2022-09-24T10:31:45;6.57;;;6.03;;
2123;SDS011;1068;52.460;13.528;2022-09-24T10:34:20;6.47;;;5.77;;
2123;SDS011;1068;52.460;13.528;2022-09-24T10:36:51;7.80;;;6.20;;
2123;SDS011;1068;52.460;13.528;2022-09-24T10:39:19;5.57;;;5.17;;
2123;SDS011;1068;52.460;13.528;2022-09-24T10:41:48;6.10;;;5.03;;
2123;SDS011;1068;52.460;13.528;2022-09-24T10:44:16;6.23;;;5.30;;
2123;SDS011;1068;52.460;13.528;2022-09-24T10:46:46;8.50;;;5.33;;
2123;SDS011;1068;52.460;13.528;2022-09-24T10:49:18;4.93;;;4.53;;
2123;SDS011;1068;52.460;13.528;2022-09-24T10:51:49;4.90;;;4.60;;
2123;SDS011;1068;52.460;13.528;2022-09-24T10:54:26;5.83;;;5.20;;
2123;SDS011;1068;52.460;13.528;2022-09-24T10:56:58;5.43;;;4.40;;
2123;SDS011;1068;52.460;13.528;2022-09-24T10:59:30;4.77;;;4.27;;
2123;SDS011;1068;52.460;13.528;2022-09-24T11:02:05;4.73;;;4.13;;
2123;SDS011;1068;52.460;13.528;2022-09-24T11:04:41;9.20;;;4.97;;
2123;SDS011;1068;52.460;13.528;2022-09-24T11:07:19;4.97;;;4.57;;
2123;SDS011;1068;52.460;13.528;2022-09-24T11:09:48;7.10;;;5.07;;
2123;SDS011;1068;52.460;13.528;2022-09-24T11:12:20;6.97;;;4.97;;
2123;SDS011;1068;52.460;13.528;2022-09-24T11:14:52;4.93;;;4.57;;
2123;SDS011;1068;52.460;13.528;2022-09-24T11:17:24;5.30;;;4.77;;
2123;SDS011;1068;52.460;13.528;2022-09-24T11:20:05;5.33;;;4.93;;
2123;SDS011;1068;52.460;13.528;2022-09-24T11:22:38;5.03;;;4.73;;
2123;SDS011;1068;52.460;13.528;2022-09-24T11:27:54;9.00;;;7.83;;
2123;SDS011;1068;52.460;13.528;2022-09-24T11:30:23;9.03;;;5.07;;
2123;SDS011;1068;52.460;13.528;2022-09-24T11:32:56;31.03;;;7.60;;
2123;SDS011;1068;52.460;13.528;2022-09-24T11:35:37;4.50;;;4.10;;
2123;SDS011;1068;52.460;13.528;2022-09-24T11:38:08;5.93;;;5.10;;
2123;SDS011;1068;52.460;13.528;2022-09-24T11:40:42;5.97;;;5.47;;
2123;SDS011;1068;52.460;13.528;2022-09-24T11:43:22;7.50;;;4.77;;
2123;SDS011;1068;52.460;13.528;2022-09-24T11:45:55;6.90;;;5.20;;
2123;SDS011;1068;52.460;13.528;2022-09-24T11:48:29;4.77;;;4.47;;
2123;SDS011;1068;52.460;13.528;2022-09-24T11:51:03;5.07;;;4.50;;
2123;SDS011;1068;52.460;13.528;2022-09-24T11:53:33;5.77;;;5.20;;
2123;SDS011;1068;52.460;13.528;2022-09-24T11:56:04;6.60;;;4.70;;
2123;SDS011;1068;52.460;13.528;2022-09-24T11:58:37;5.87;;;4.43;;
2123;SDS011;1068;52.460;13.528;2022-09-24T12:01:08;5.00;;;4.60;;
2123;SDS011;1068;52.460;13.528;2022-09-24T12:03:37;6.03;;;5.47;;
2123;SDS011;1068;52.460;13.528;2022-09-24T12:06:06;6.53;;;4.80;;
2123;SDS011;1068;52.460;13.528;2022-09-24T12:08:35;6.17;;;5.27;;
2123;SDS011;1068;52.460;13.528;2022-09-24T12:11:05;6.30;;;5.80;;
2123;SDS011;1068;52.460;13.528;2022-09-24T12:13:35;4.73;;;4.33;;
2123;SDS011;1068;52.460;13.528;2022-09-24T12:16:07;5.17;;;4.70;;
2123;SDS011;1068;52.460;13.528;2022-09-24T12:18:38;6.13;;;4.77;;
2123;SDS011;1068;52.460;13.528;2022-09-24T12:21:07;4.90;;;4.50;;
2123;SDS011;1068;52.460;13.528;2022-09-24T12:23:36;4.23;;;3.90;;
2123;SDS011;1068;52.460;13.528;2022-09-24T12:26:05;5.60;;;5.10;;
2123;SDS011;1068;52.460;13.528;2022-09-24T12:28:34;4.40;;;4.10;;
2123;SDS011;1068;52.460;13.528;2022-09-24T12:31:24;4.10;;;3.80;;
2123;SDS011;1068;52.460;13.528;2022-09-24T12:34:13;4.20;;;3.97;;
2123;SDS011;1068;52.460;13.528;2022-09-24T12:36:45;5.20;;;4.80;;
2123;SDS011;1068;52.460;13.528;2022-09-24T12:39:18;5.00;;;4.60;;
2123;SDS011;1068;52.460;13.528;2022-09-24T12:41:46;5.60;;;4.87;;
2123;SDS011;1068;52.460;13.528;2022-09-24T12:44:15;5.07;;;4.47;;
2123;SDS011;1068;52.460;13.528;2022-09-24T12:46:46;4.20;;;3.90;;
2123;SDS011;1068;52.460;13.528;2022-09-24T12:49:17;3.90;;;3.60;;
2123;SDS011;1068;52.460;13.528;2022-09-24T12:51:45;3.93;;;3.70;;
2123;SDS011;1068;52.460;13.528;2022-09-24T12:54:18;4.23;;;3.93;;
2123;SDS011;1068;52.460;13.528;2022-09-24T12:56:48;4.03;;;3.83;;
2123;SDS011;1068;52.460;13.528;2022-09-24T13:02:11;5.60;;;5.20;;
2123;SDS011;1068;52.460;13.528;2022-09-24T13:04:42;4.43;;;4.03;;
2123;SDS011;1068;52.460;13.528;2022-09-24T13:09:51;3.60;;;3.40;;
2123;SDS011;1068;52.460;13.528;2022-09-24T13:12:19;5.50;;;4.30;;
2123;SDS011;1068;52.460;13.528;2022-09-24T13:14:48;5.13;;;4.73;;
2123;SDS011;1068;52.460;13.528;2022-09-24T13:17:16;8.33;;;3.90;;
2123;SDS011;1068;52.460;13.528;2022-09-24T13:19:44;5.00;;;4.60;;
2123;SDS011;1068;52.460;13.528;2022-09-24T13:22:20;4.60;;;4.30;;
2123;SDS011;1068;52.460;13.528;2022-09-24T13:24:48;4.93;;;4.50;;
2123;SDS011;1068;52.460;13.528;2022-09-24T13:27:18;4.60;;;4.30;;
2123;SDS011;1068;52.460;13.528;2022-09-24T13:29:46;5.30;;;4.80;;
2123;SDS011;1068;52.460;13.528;2022-09-24T13:32:14;6.00;;;5.50;;
2123;SDS011;1068;52.460;13.528;2022-09-24T13:34:44;6.97;;;6.27;;
2123;SDS011;1068;52.460;13.528;2022-09-24T13:37:14;4.97;;;4.57;;
2123;SDS011;1068;52.460;13.528;2022-09-24T13:39:46;4.70;;;4.30;;
2123;SDS011;1068;52.460;13.528;2022-09-24T13:42:16;4.70;;;4.30;;
2123;SDS011;1068;52.460;13.528;2022-09-24T13:44:45;6.17;;;4.43;;
2123;SDS011;1068;52.460;13.528;2022-09-24T13:47:13;5.73;;;5.33;;
2123;SDS011;1068;52.460;13.528;2022-09-24T13:49:41;4.90;;;4.50;;
2123;SDS011;1068;52.460;13.528;2022-09-24T13:52:12;5.20;;;4.70;;
2123;SDS011;1068;52.460;13.528;2022-09-24T13:54:44;6.63;;;5.90;;
2123;SDS011;1068;52.460;13.528;2022-09-24T13:57:18;5.20;;;4.70;;
2123;SDS011;1068;52.460;13.528;2022-09-24T13:59:45;4.93;;;4.53;;
2123;SDS011;1068;52.460;13.528;2022-09-24T14:02:20;5.07;;;4.60;;
2123;SDS011;1068;52.460;13.528;2022-09-24T14:04:51;4.70;;;4.30;;
2123;SDS011;1068;52.460;13.528;2022-09-24T14:07:20;4.87;;;4.50;;
2123;SDS011;1068;52.460;13.528;2022-09-24T14:09:47;5.87;;;4.30;;
2123;SDS011;1068;52.460;13.528;2022-09-24T14:12:16;5.67;;;4.80;;
2123;SDS011;1068;52.460;13.528;2022-09-24T14:14:49;4.53;;;4.13;;
2123;SDS011;1068;52.460;13.528;2022-09-24T14:17:17;4.73;;;4.30;;
2123;SDS011;1068;52.460;13.528;2022-09-24T14:19:44;4.70;;;4.30;;
2123;SDS011;1068;52.460;13.528;2022-09-24T14:22:13;5.33;;;4.93;;
2123;SDS011;1068;52.460;13.528;2022-09-24T14:24:43;5.60;;;5.10;;
2123;SDS011;1068;52.460;13.528;2022-09-24T14:27:11;5.60;;;5.10;;
2123;SDS011;1068;52.460;13.528;2022-09-24T14:29:41;5.40;;;4.90;;
2123;SDS011;1068;52.460;13.528;2022-09-24T14:32:15;6.03;;;4.87;;
2123;SDS011;1068;52.460;13.528;2022-09-24T14:34:45;4.97;;;4.67;;
2123;SDS011;1068;52.460;13.528;2022-09-24T14:37:17;5.83;;;5.23;;
2123;SDS011;1068;52.460;13.528;2022-09-24T14:39:47;5.20;;;4.70;;
2123;SDS011;1068;52.460;13.528;2022-09-24T14:42:16;4.70;;;4.40;;
2123;SDS011;1068;52.460;13.528;2022-09-24T14:44:47;5.40;;;5.00;;
2123;SDS011;1068;52.460;13.528;2022-09-24T14:47:24;4.77;;;4.47;;
2123;SDS011;1068;52.460;13.528;2022-09-24T14:49:51;4.83;;;4.27;;
2123;SDS011;1068;52.460;13.528;2022-09-24T14:52:26;4.80;;;4.50;;
2123;SDS011;1068;52.460;13.528;2022-09-24T14:55:13;5.60;;;5.10;;
2123;SDS011;1068;52.460;13.528;2022-09-24T14:57:41;4.97;;;4.57;;
2123;SDS011;1068;52.460;13.528;2022-09-24T15:00:18;5.20;;;4.80;;
2123;SDS011;1068;52.460;13.528;2022-09-24T15:02:46;5.33;;;4.83;;
2123;SDS011;1068;52.460;13.528;2022-09-24T15:05:14;6.57;;;5.43;;
2123;SDS011;1068;52.460;13.528;2022-09-24T15:07:41;5.60;;;5.20;;
2123;SDS011;1068;52.460;13.528;2022-09-24T15:10:18;5.20;;;4.80;;
2123;SDS011;1068;52.460;13.528;2022-09-24T15:12:46;5.57;;;5.17;;
2123;SDS011;1068;52.460;13.528;2022-09-24T15:15:24;4.90;;;4.60;;
2123;SDS011;1068;52.460;13.528;2022-09-24T15:17:52;7.07;;;5.23;;
2123;SDS011;1068;52.460;13.528;2022-09-24T15:20:19;5.50;;;4.90;;
2123;SDS011;1068;52.460;13.528;2022-09-24T15:22:46;5.37;;;5.00;;